sensor_id;sensor_type;location;lat;lon;timestamp;P1;durP1;ratioP1;P2;durP2;ratioP2
45344;SDS011;31078;48.304;11.896;2023-05-07T00:00:07;18.63;;;9.05;;
45344;SDS011;31078;48.304;11.896;2023-05-07T00:02:34;21.67;;;10.40;;
45344;SDS011;31078;48.304;11.896;2023-05-07T00:05:02;14.98;;;8.52;;
45344;SDS011;31078;48.304;11.896;2023-05-07T00:07:29;17.98;;;8.52;;
45344;SDS011;31078;48.304;11.896;2023-05-07T00:09:55;39.08;;;15.63;;
45344;SDS011;31078;48.304;11.896;2023-05-07T00:12:22;36.92;;;13.65;;
45344;SDS011;31078;48.304;11.896;2023-05-07T00:14:48;37.65;;;13.93;;
45344;SDS011;31078;48.304;11.896;2023-05-07T00:17:14;28.98;;;12.02;;
45344;SDS011;31078;48.304;11.896;2023-05-07T00:19:41;26.90;;;12.00;;
45344;SDS011;31078;48.304;11.896;2023-05-07T00:22:09;19.17;;;9.43;;
45344;SDS011;31078;48.304;11.896;2023-05-07T00:24:35;22.88;;;9.80;;
45344;SDS011;31078;48.304;11.896;2023-05-07T00:27:02;12.20;;;8.35;;
45344;SDS011;31078;48.304;11.896;2023-05-07T00:29:28;10.88;;;7.32;;
45344;SDS011;31078;48.304;11.896;2023-05-07T00:31:55;10.13;;;7.05;;
45344;SDS011;31078;48.304;11.896;2023-05-07T00:34:21;10.20;;;6.97;;
45344;SDS011;31078;48.304;11.896;2023-05-07T00:36:48;11.25;;;7.03;;
45344;SDS011;31078;48.304;11.896;2023-05-07T00:39:16;7.45;;;6.32;;
45344;SDS011;31078;48.304;11.896;2023-05-07T00:41:42;7.15;;;5.88;;
45344;SDS011;31078;48.304;11.896;2023-05-07T00:44:09;8.57;;;6.50;;
45344;SDS011;31078;48.304;11.896;2023-05-07T00:46:35;8.82;;;6.43;;
45344;SDS011;31078;48.304;11.896;2023-05-07T00:49:02;11.52;;;7.47;;
45344;SDS011;31078;48.304;11.896;2023-05-07T00:51:28;9.25;;;6.35;;
45344;SDS011;31078;48.304;11.896;2023-05-07T00:53:56;8.50;;;5.93;;
45344;SDS011;31078;48.304;11.896;2023-05-07T00:56:23;8.05;;;6.30;;
45344;SDS011;31078;48.304;11.896;2023-05-07T00:58:51;11.10;;;7.22;;
45344;SDS011;31078;48.304;11.896;2023-05-07T01:01:17;9.73;;;6.68;;
45344;SDS011;31078;48.304;11.896;2023-05-07T01:03:44;9.70;;;6.45;;
45344;SDS011;31078;48.304;11.896;2023-05-07T01:06:10;9.27;;;6.18;;
45344;SDS011;31078;48.304;11.896;2023-05-07T01:08:41;8.18;;;6.53;;
45344;SDS011;31078;48.304;11.896;2023-05-07T01:11:08;14.35;;;6.82;;
45344;SDS011;31078;48.304;11.896;2023-05-07T01:13:38;7.60;;;5.65;;
45344;SDS011;31078;48.304;11.896;2023-05-07T01:16:06;7.30;;;5.10;;
45344;SDS011;31078;48.304;11.896;2023-05-07T01:18:33;7.80;;;5.57;;
45344;SDS011;31078;48.304;11.896;2023-05-07T01:20:59;8.48;;;5.60;;
45344;SDS011;31078;48.304;11.896;2023-05-07T01:23:31;8.65;;;6.20;;
45344;SDS011;31078;48.304;11.896;2023-05-07T01:26:00;7.75;;;5.70;;
45344;SDS011;31078;48.304;11.896;2023-05-07T01:28:26;10.38;;;7.30;;
45344;SDS011;31078;48.304;11.896;2023-05-07T01:30:54;11.32;;;6.43;;
45344;SDS011;31078;48.304;11.896;2023-05-07T01:33:22;9.32;;;6.53;;
45344;SDS011;31078;48.304;11.896;2023-05-07T01:35:51;7.88;;;6.25;;
45344;SDS011;31078;48.304;11.896;2023-05-07T01:38:20;9.20;;;6.60;;
45344;SDS011;31078;48.304;11.896;2023-05-07T01:40:49;8.43;;;5.78;;
45344;SDS011;31078;48.304;11.896;2023-05-07T01:43:16;7.88;;;5.45;;
45344;SDS011;31078;48.304;11.896;2023-05-07T01:45:43;9.38;;;5.90;;
45344;SDS011;31078;48.304;11.896;2023-05-07T01:48:11;10.52;;;6.50;;
45344;SDS011;31078;48.304;11.896;2023-05-07T01:50:38;7.35;;;6.03;;
45344;SDS011;31078;48.304;11.896;2023-05-07T01:53:06;8.45;;;5.88;;
45344;SDS011;31078;48.304;11.896;2023-05-07T01:55:32;6.18;;;5.18;;
45344;SDS011;31078;48.304;11.896;2023-05-07T01:58:00;9.98;;;5.97;;
45344;SDS011;31078;48.304;11.896;2023-05-07T02:00:27;8.52;;;5.47;;
45344;SDS011;31078;48.304;11.896;2023-05-07T02:02:53;7.00;;;5.22;;
45344;SDS011;31078;48.304;11.896;2023-05-07T02:05:20;6.97;;;5.47;;
45344;SDS011;31078;48.304;11.896;2023-05-07T02:07:47;8.43;;;5.07;;
45344;SDS011;31078;48.304;11.896;2023-05-07T02:10:13;7.18;;;5.32;;
45344;SDS011;31078;48.304;11.896;2023-05-07T02:12:40;7.78;;;5.30;;
45344;SDS011;31078;48.304;11.896;2023-05-07T02:15:09;8.63;;;6.10;;
45344;SDS011;31078;48.304;11.896;2023-05-07T02:20:23;7.70;;;5.43;;
45344;SDS011;31078;48.304;11.896;2023-05-07T02:22:49;5.88;;;5.15;;
45344;SDS011;31078;48.304;11.896;2023-05-07T02:25:16;10.00;;;5.95;;
45344;SDS011;31078;48.304;11.896;2023-05-07T02:27:42;9.43;;;5.80;;
45344;SDS011;31078;48.304;11.896;2023-05-07T02:30:11;10.68;;;5.95;;
45344;SDS011;31078;48.304;11.896;2023-05-07T02:32:37;11.05;;;7.43;;
45344;SDS011;31078;48.304;11.896;2023-05-07T02:35:05;9.93;;;6.65;;
45344;SDS011;31078;48.304;11.896;2023-05-07T02:37:31;8.43;;;6.03;;
45344;SDS011;31078;48.304;11.896;2023-05-07T02:39:58;7.95;;;5.95;;
45344;SDS011;31078;48.304;11.896;2023-05-07T02:42:24;8.88;;;6.05;;
45344;SDS011;31078;48.304;11.896;2023-05-07T02:44:51;7.40;;;5.28;;
45344;SDS011;31078;48.304;11.896;2023-05-07T02:47:19;6.80;;;4.88;;
45344;SDS011;31078;48.304;11.896;2023-05-07T02:49:45;6.28;;;4.45;;
45344;SDS011;31078;48.304;11.896;2023-05-07T02:52:12;6.45;;;5.10;;
45344;SDS011;31078;48.304;11.896;2023-05-07T02:54:38;7.35;;;4.75;;
45344;SDS011;31078;48.304;11.896;2023-05-07T02:57:05;5.65;;;4.60;;
45344;SDS011;31078;48.304;11.896;2023-05-07T02:59:31;5.88;;;4.95;;
45344;SDS011;31078;48.304;11.896;2023-05-07T03:01:58;7.32;;;5.07;;
45344;SDS011;31078;48.304;11.896;2023-05-07T03:04:25;8.50;;;5.00;;
45344;SDS011;31078;48.304;11.896;2023-05-07T03:06:52;7.35;;;4.72;;
45344;SDS011;31078;48.304;11.896;2023-05-07T03:09:19;10.18;;;5.90;;
45344;SDS011;31078;48.304;11.896;2023-05-07T03:11:45;6.50;;;5.35;;
45344;SDS011;31078;48.304;11.896;2023-05-07T03:14:12;7.53;;;5.75;;
45344;SDS011;31078;48.304;11.896;2023-05-07T03:16:38;8.20;;;5.90;;
45344;SDS011;31078;48.304;11.896;2023-05-07T03:19:05;8.55;;;5.68;;
45344;SDS011;31078;48.304;11.896;2023-05-07T03:21:33;8.38;;;5.20;;
45344;SDS011;31078;48.304;11.896;2023-05-07T03:23:59;8.57;;;5.25;;
45344;SDS011;31078;48.304;11.896;2023-05-07T03:26:26;8.13;;;5.50;;
45344;SDS011;31078;48.304;11.896;2023-05-07T03:28:52;8.63;;;5.35;;
45344;SDS011;31078;48.304;11.896;2023-05-07T03:31:20;8.55;;;5.40;;
45344;SDS011;31078;48.304;11.896;2023-05-07T03:33:50;6.75;;;5.13;;
45344;SDS011;31078;48.304;11.896;2023-05-07T03:36:17;5.80;;;5.10;;
45344;SDS011;31078;48.304;11.896;2023-05-07T03:38:45;8.43;;;5.00;;
45344;SDS011;31078;48.304;11.896;2023-05-07T03:41:11;8.45;;;5.68;;
45344;SDS011;31078;48.304;11.896;2023-05-07T03:43:38;9.30;;;6.20;;
45344;SDS011;31078;48.304;11.896;2023-05-07T03:46:05;6.47;;;5.40;;
45344;SDS011;31078;48.304;11.896;2023-05-07T03:48:31;7.63;;;5.82;;
45344;SDS011;31078;48.304;11.896;2023-05-07T03:50:58;6.75;;;5.65;;
45344;SDS011;31078;48.304;11.896;2023-05-07T03:53:25;7.13;;;5.60;;
45344;SDS011;31078;48.304;11.896;2023-05-07T03:55:53;6.80;;;5.10;;
45344;SDS011;31078;48.304;11.896;2023-05-07T03:58:19;9.55;;;5.65;;
45344;SDS011;31078;48.304;11.896;2023-05-07T04:00:46;7.05;;;5.50;;
45344;SDS011;31078;48.304;11.896;2023-05-07T04:03:12;7.68;;;5.60;;
45344;SDS011;31078;48.304;11.896;2023-05-07T04:05:38;8.00;;;5.88;;
45344;SDS011;31078;48.304;11.896;2023-05-07T04:08:05;7.03;;;5.85;;
45344;SDS011;31078;48.304;11.896;2023-05-07T04:10:31;10.57;;;6.57;;
45344;SDS011;31078;48.304;11.896;2023-05-07T04:12:59;9.55;;;6.00;;
45344;SDS011;31078;48.304;11.896;2023-05-07T04:15:25;7.95;;;6.22;;
45344;SDS011;31078;48.304;11.896;2023-05-07T04:17:52;7.65;;;6.20;;
45344;SDS011;31078;48.304;11.896;2023-05-07T04:20:18;7.50;;;6.05;;
45344;SDS011;31078;48.304;11.896;2023-05-07T04:22:45;6.90;;;6.10;;
45344;SDS011;31078;48.304;11.896;2023-05-07T04:25:11;7.85;;;6.18;;
45344;SDS011;31078;48.304;11.896;2023-05-07T04:27:38;8.18;;;6.20;;
45344;SDS011;31078;48.304;11.896;2023-05-07T04:30:06;6.90;;;5.90;;
45344;SDS011;31078;48.304;11.896;2023-05-07T04:32:34;11.93;;;5.80;;
45344;SDS011;31078;48.304;11.896;2023-05-07T04:35:01;7.20;;;5.97;;
45344;SDS011;31078;48.304;11.896;2023-05-07T04:37:27;9.52;;;5.95;;
45344;SDS011;31078;48.304;11.896;2023-05-07T04:39:54;8.38;;;5.22;;
45344;SDS011;31078;48.304;11.896;2023-05-07T04:42:20;7.38;;;6.07;;
45344;SDS011;31078;48.304;11.896;2023-05-07T04:44:47;10.48;;;6.35;;
45344;SDS011;31078;48.304;11.896;2023-05-07T04:47:20;8.25;;;5.68;;
45344;SDS011;31078;48.304;11.896;2023-05-07T04:49:46;6.47;;;5.78;;
45344;SDS011;31078;48.304;11.896;2023-05-07T04:52:13;6.85;;;5.63;;
45344;SDS011;31078;48.304;11.896;2023-05-07T04:54:40;8.85;;;6.85;;
45344;SDS011;31078;48.304;11.896;2023-05-07T04:57:06;10.55;;;6.55;;
45344;SDS011;31078;48.304;11.896;2023-05-07T04:59:33;7.15;;;6.20;;
45344;SDS011;31078;48.304;11.896;2023-05-07T05:02:00;7.80;;;6.68;;
45344;SDS011;31078;48.304;11.896;2023-05-07T05:04:27;9.57;;;6.93;;
45344;SDS011;31078;48.304;11.896;2023-05-07T05:06:54;8.82;;;6.95;;
45344;SDS011;31078;48.304;11.896;2023-05-07T05:09:20;9.88;;;7.78;;
45344;SDS011;31078;48.304;11.896;2023-05-07T05:11:47;7.18;;;6.32;;
45344;SDS011;31078;48.304;11.896;2023-05-07T05:14:13;9.00;;;7.53;;
45344;SDS011;31078;48.304;11.896;2023-05-07T05:16:40;9.48;;;7.53;;
45344;SDS011;31078;48.304;11.896;2023-05-07T05:19:06;10.10;;;7.78;;
45344;SDS011;31078;48.304;11.896;2023-05-07T05:21:34;8.85;;;7.28;;
45344;SDS011;31078;48.304;11.896;2023-05-07T05:24:00;10.45;;;8.30;;
45344;SDS011;31078;48.304;11.896;2023-05-07T05:26:27;10.45;;;7.93;;
45344;SDS011;31078;48.304;11.896;2023-05-07T05:28:53;11.20;;;9.10;;
45344;SDS011;31078;48.304;11.896;2023-05-07T05:31:20;11.38;;;8.63;;
45344;SDS011;31078;48.304;11.896;2023-05-07T05:33:46;9.88;;;8.23;;
45344;SDS011;31078;48.304;11.896;2023-05-07T05:36:13;12.32;;;10.02;;
45344;SDS011;31078;48.304;11.896;2023-05-07T05:38:41;10.73;;;8.85;;
45344;SDS011;31078;48.304;11.896;2023-05-07T05:41:07;12.73;;;9.80;;
45344;SDS011;31078;48.304;11.896;2023-05-07T05:43:33;13.05;;;9.82;;
45344;SDS011;31078;48.304;11.896;2023-05-07T05:46:00;16.30;;;11.93;;
45344;SDS011;31078;48.304;11.896;2023-05-07T05:48:28;15.05;;;11.95;;
45344;SDS011;31078;48.304;11.896;2023-05-07T05:50:55;13.85;;;11.60;;
45344;SDS011;31078;48.304;11.896;2023-05-07T05:53:21;11.82;;;10.52;;
45344;SDS011;31078;48.304;11.896;2023-05-07T05:55:49;14.43;;;11.93;;
45344;SDS011;31078;48.304;11.896;2023-05-07T05:58:16;17.15;;;13.00;;
45344;SDS011;31078;48.304;11.896;2023-05-07T06:00:43;15.43;;;13.00;;
45344;SDS011;31078;48.304;11.896;2023-05-07T06:03:10;16.55;;;13.57;;
45344;SDS011;31078;48.304;11.896;2023-05-07T06:05:37;16.45;;;13.52;;
45344;SDS011;31078;48.304;11.896;2023-05-07T06:08:03;15.65;;;12.68;;
45344;SDS011;31078;48.304;11.896;2023-05-07T06:10:29;16.05;;;12.38;;
45344;SDS011;31078;48.304;11.896;2023-05-07T06:12:57;18.00;;;13.38;;
45344;SDS011;31078;48.304;11.896;2023-05-07T06:15:24;16.80;;;13.23;;
45344;SDS011;31078;48.304;11.896;2023-05-07T06:17:50;17.15;;;13.07;;
45344;SDS011;31078;48.304;11.896;2023-05-07T06:20:17;17.85;;;14.07;;
45344;SDS011;31078;48.304;11.896;2023-05-07T06:22:43;21.23;;;14.85;;
45344;SDS011;31078;48.304;11.896;2023-05-07T06:25:10;18.17;;;13.43;;
45344;SDS011;31078;48.304;11.896;2023-05-07T06:27:36;21.42;;;15.57;;
45344;SDS011;31078;48.304;11.896;2023-05-07T06:30:06;20.67;;;15.18;;
45344;SDS011;31078;48.304;11.896;2023-05-07T06:32:33;22.42;;;15.82;;
45344;SDS011;31078;48.304;11.896;2023-05-07T06:35:00;20.27;;;14.50;;
45344;SDS011;31078;48.304;11.896;2023-05-07T06:37:26;21.35;;;14.88;;
45344;SDS011;31078;48.304;11.896;2023-05-07T06:39:52;22.27;;;15.38;;
45344;SDS011;31078;48.304;11.896;2023-05-07T06:42:19;18.45;;;14.75;;
45344;SDS011;31078;48.304;11.896;2023-05-07T06:44:45;18.42;;;13.73;;
45344;SDS011;31078;48.304;11.896;2023-05-07T06:47:13;17.20;;;13.13;;
45344;SDS011;31078;48.304;11.896;2023-05-07T06:49:40;20.05;;;14.30;;
45344;SDS011;31078;48.304;11.896;2023-05-07T06:52:06;15.85;;;12.40;;
45344;SDS011;31078;48.304;11.896;2023-05-07T06:54:33;14.35;;;11.00;;
45344;SDS011;31078;48.304;11.896;2023-05-07T06:56:59;17.25;;;13.13;;
45344;SDS011;31078;48.304;11.896;2023-05-07T06:59:26;16.48;;;12.32;;
45344;SDS011;31078;48.304;11.896;2023-05-07T07:01:52;16.88;;;12.75;;
45344;SDS011;31078;48.304;11.896;2023-05-07T07:04:20;14.73;;;11.32;;
45344;SDS011;31078;48.304;11.896;2023-05-07T07:06:48;16.70;;;12.45;;
45344;SDS011;31078;48.304;11.896;2023-05-07T07:09:14;16.52;;;11.23;;
45344;SDS011;31078;48.304;11.896;2023-05-07T07:11:40;15.52;;;11.52;;
45344;SDS011;31078;48.304;11.896;2023-05-07T07:14:07;15.25;;;11.18;;
45344;SDS011;31078;48.304;11.896;2023-05-07T07:16:33;16.88;;;11.43;;
45344;SDS011;31078;48.304;11.896;2023-05-07T07:19:00;12.57;;;10.05;;
45344;SDS011;31078;48.304;11.896;2023-05-07T07:21:28;12.75;;;10.07;;
45344;SDS011;31078;48.304;11.896;2023-05-07T07:23:55;13.57;;;9.93;;
45344;SDS011;31078;48.304;11.896;2023-05-07T07:26:21;13.82;;;9.52;;
45344;SDS011;31078;48.304;11.896;2023-05-07T07:28:47;10.73;;;8.85;;
45344;SDS011;31078;48.304;11.896;2023-05-07T07:31:14;9.98;;;7.72;;
45344;SDS011;31078;48.304;11.896;2023-05-07T07:33:40;11.02;;;8.60;;
45344;SDS011;31078;48.304;11.896;2023-05-07T07:36:07;10.25;;;7.82;;
45344;SDS011;31078;48.304;11.896;2023-05-07T07:38:35;9.57;;;7.68;;
45344;SDS011;31078;48.304;11.896;2023-05-07T07:41:01;9.55;;;6.70;;
45344;SDS011;31078;48.304;11.896;2023-05-07T07:43:28;8.27;;;6.18;;
45344;SDS011;31078;48.304;11.896;2023-05-07T07:45:55;8.85;;;6.32;;
45344;SDS011;31078;48.304;11.896;2023-05-07T07:48:21;7.47;;;6.00;;
45344;SDS011;31078;48.304;11.896;2023-05-07T07:50:48;9.80;;;6.32;;
45344;SDS011;31078;48.304;11.896;2023-05-07T07:53:15;7.40;;;5.10;;
45344;SDS011;31078;48.304;11.896;2023-05-07T07:55:43;8.60;;;4.85;;
45344;SDS011;31078;48.304;11.896;2023-05-07T07:58:09;5.97;;;3.78;;
45344;SDS011;31078;48.304;11.896;2023-05-07T08:00:36;5.60;;;4.07;;
45344;SDS011;31078;48.304;11.896;2023-05-07T08:03:02;6.30;;;4.10;;
45344;SDS011;31078;48.304;11.896;2023-05-07T08:05:30;8.50;;;4.50;;
45344;SDS011;31078;48.304;11.896;2023-05-07T08:07:56;6.40;;;4.70;;
45344;SDS011;31078;48.304;11.896;2023-05-07T08:10:23;5.35;;;4.40;;
45344;SDS011;31078;48.304;11.896;2023-05-07T08:12:51;5.40;;;4.50;;
45344;SDS011;31078;48.304;11.896;2023-05-07T08:15:17;6.55;;;4.10;;
45344;SDS011;31078;48.304;11.896;2023-05-07T08:17:44;4.32;;;3.30;;
45344;SDS011;31078;48.304;11.896;2023-05-07T08:20:10;5.25;;;4.30;;
45344;SDS011;31078;48.304;11.896;2023-05-07T08:22:37;5.82;;;3.97;;
45344;SDS011;31078;48.304;11.896;2023-05-07T08:25:04;5.32;;;3.95;;
45344;SDS011;31078;48.304;11.896;2023-05-07T08:27:31;4.85;;;3.95;;
45344;SDS011;31078;48.304;11.896;2023-05-07T08:29:58;7.60;;;4.53;;
45344;SDS011;31078;48.304;11.896;2023-05-07T08:32:25;5.75;;;3.72;;
45344;SDS011;31078;48.304;11.896;2023-05-07T08:34:52;12.45;;;8.40;;
45344;SDS011;31078;48.304;11.896;2023-05-07T08:37:19;5.25;;;3.63;;
45344;SDS011;31078;48.304;11.896;2023-05-07T08:39:46;4.80;;;3.80;;
45344;SDS011;31078;48.304;11.896;2023-05-07T08:42:12;7.03;;;3.78;;
45344;SDS011;31078;48.304;11.896;2023-05-07T08:44:40;6.82;;;3.78;;
45344;SDS011;31078;48.304;11.896;2023-05-07T08:47:10;4.85;;;3.47;;
45344;SDS011;31078;48.304;11.896;2023-05-07T08:49:36;4.32;;;3.72;;
45344;SDS011;31078;48.304;11.896;2023-05-07T08:52:03;5.15;;;3.67;;
45344;SDS011;31078;48.304;11.896;2023-05-07T08:54:30;4.47;;;3.60;;
45344;SDS011;31078;48.304;11.896;2023-05-07T08:56:57;5.75;;;3.97;;
45344;SDS011;31078;48.304;11.896;2023-05-07T08:59:24;6.60;;;3.88;;
45344;SDS011;31078;48.304;11.896;2023-05-07T09:01:50;4.05;;;3.65;;
45344;SDS011;31078;48.304;11.896;2023-05-07T09:04:18;5.15;;;4.28;;
45344;SDS011;31078;48.304;11.896;2023-05-07T09:06:45;7.03;;;3.60;;
45344;SDS011;31078;48.304;11.896;2023-05-07T09:09:14;4.63;;;3.53;;
45344;SDS011;31078;48.304;11.896;2023-05-07T09:11:42;4.05;;;3.53;;
45344;SDS011;31078;48.304;11.896;2023-05-07T09:14:09;4.93;;;3.00;;
45344;SDS011;31078;48.304;11.896;2023-05-07T09:16:35;4.97;;;3.70;;
45344;SDS011;31078;48.304;11.896;2023-05-07T09:19:02;4.22;;;3.40;;
45344;SDS011;31078;48.304;11.896;2023-05-07T09:21:30;4.18;;;3.65;;
45344;SDS011;31078;48.304;11.896;2023-05-07T09:23:56;5.40;;;3.53;;
45344;SDS011;31078;48.304;11.896;2023-05-07T09:26:23;3.97;;;2.80;;
45344;SDS011;31078;48.304;11.896;2023-05-07T09:28:53;5.65;;;3.55;;
45344;SDS011;31078;48.304;11.896;2023-05-07T09:31:19;4.28;;;3.10;;
45344;SDS011;31078;48.304;11.896;2023-05-07T09:33:48;4.07;;;3.20;;
45344;SDS011;31078;48.304;11.896;2023-05-07T09:36:15;4.07;;;3.00;;
45344;SDS011;31078;48.304;11.896;2023-05-07T09:38:43;5.82;;;3.53;;
45344;SDS011;31078;48.304;11.896;2023-05-07T09:41:11;6.68;;;3.83;;
45344;SDS011;31078;48.304;11.896;2023-05-07T09:43:39;8.18;;;4.18;;
45344;SDS011;31078;48.304;11.896;2023-05-07T09:46:07;5.40;;;3.42;;
45344;SDS011;31078;48.304;11.896;2023-05-07T09:48:37;5.60;;;3.78;;
45344;SDS011;31078;48.304;11.896;2023-05-07T09:53:49;6.45;;;4.10;;
45344;SDS011;31078;48.304;11.896;2023-05-07T09:56:18;6.95;;;3.58;;
45344;SDS011;31078;48.304;11.896;2023-05-07T09:58:46;5.05;;;3.80;;
45344;SDS011;31078;48.304;11.896;2023-05-07T10:01:13;4.82;;;3.70;;
45344;SDS011;31078;48.304;11.896;2023-05-07T10:03:40;4.97;;;3.35;;
45344;SDS011;31078;48.304;11.896;2023-05-07T10:06:08;7.07;;;3.50;;
45344;SDS011;31078;48.304;11.896;2023-05-07T10:08:35;4.47;;;3.90;;
45344;SDS011;31078;48.304;11.896;2023-05-07T10:11:04;4.43;;;3.38;;
45344;SDS011;31078;48.304;11.896;2023-05-07T10:13:31;4.72;;;2.88;;
45344;SDS011;31078;48.304;11.896;2023-05-07T10:15:59;4.05;;;2.78;;
45344;SDS011;31078;48.304;11.896;2023-05-07T10:18:26;3.78;;;2.90;;
45344;SDS011;31078;48.304;11.896;2023-05-07T10:20:54;3.70;;;2.90;;
45344;SDS011;31078;48.304;11.896;2023-05-07T10:23:28;5.13;;;3.00;;
45344;SDS011;31078;48.304;11.896;2023-05-07T10:25:56;4.30;;;3.30;;
45344;SDS011;31078;48.304;11.896;2023-05-07T10:28:24;5.68;;;2.70;;
45344;SDS011;31078;48.304;11.896;2023-05-07T10:30:56;5.03;;;2.30;;
45344;SDS011;31078;48.304;11.896;2023-05-07T10:33:33;4.90;;;2.30;;
45344;SDS011;31078;48.304;11.896;2023-05-07T10:36:02;4.63;;;2.78;;
45344;SDS011;31078;48.304;11.896;2023-05-07T10:38:29;4.85;;;2.70;;
45344;SDS011;31078;48.304;11.896;2023-05-07T10:40:57;3.05;;;2.22;;
45344;SDS011;31078;48.304;11.896;2023-05-07T10:43:25;4.47;;;2.70;;
45344;SDS011;31078;48.304;11.896;2023-05-07T10:46:15;4.18;;;1.40;;
45344;SDS011;31078;48.304;11.896;2023-05-07T10:51:41;4.00;;;2.80;;
45344;SDS011;31078;48.304;11.896;2023-05-07T10:54:20;3.97;;;2.70;;
45344;SDS011;31078;48.304;11.896;2023-05-07T10:56:47;4.45;;;2.53;;
45344;SDS011;31078;48.304;11.896;2023-05-07T10:59:38;3.75;;;2.67;;
45344;SDS011;31078;48.304;11.896;2023-05-07T11:02:08;3.55;;;2.72;;
45344;SDS011;31078;48.304;11.896;2023-05-07T11:04:36;3.90;;;2.60;;
45344;SDS011;31078;48.304;11.896;2023-05-07T11:10:03;2.92;;;2.22;;
45344;SDS011;31078;48.304;11.896;2023-05-07T11:12:54;5.47;;;2.50;;
45344;SDS011;31078;48.304;11.896;2023-05-07T11:15:35;5.07;;;2.67;;
45344;SDS011;31078;48.304;11.896;2023-05-07T11:18:02;7.82;;;3.05;;
45344;SDS011;31078;48.304;11.896;2023-05-07T11:20:49;5.25;;;2.80;;
45344;SDS011;31078;48.304;11.896;2023-05-07T11:26:21;6.32;;;3.30;;
45344;SDS011;31078;48.304;11.896;2023-05-07T11:28:48;4.18;;;2.67;;
45344;SDS011;31078;48.304;11.896;2023-05-07T11:31:19;6.15;;;2.67;;
45344;SDS011;31078;48.304;11.896;2023-05-07T11:33:47;4.88;;;2.90;;
45344;SDS011;31078;48.304;11.896;2023-05-07T11:36:14;3.47;;;2.70;;
45344;SDS011;31078;48.304;11.896;2023-05-07T11:38:42;4.68;;;3.13;;
45344;SDS011;31078;48.304;11.896;2023-05-07T11:41:08;5.20;;;2.50;;
45344;SDS011;31078;48.304;11.896;2023-05-07T11:43:35;5.35;;;2.92;;
45344;SDS011;31078;48.304;11.896;2023-05-07T11:46:05;5.15;;;3.00;;
45344;SDS011;31078;48.304;11.896;2023-05-07T11:48:35;4.43;;;2.60;;
45344;SDS011;31078;48.304;11.896;2023-05-07T11:51:02;5.13;;;2.58;;
45344;SDS011;31078;48.304;11.896;2023-05-07T11:53:35;6.28;;;3.10;;
45344;SDS011;31078;48.304;11.896;2023-05-07T11:58:32;4.90;;;3.30;;
45344;SDS011;31078;48.304;11.896;2023-05-07T12:00:58;4.80;;;3.30;;
45344;SDS011;31078;48.304;11.896;2023-05-07T12:03:25;3.90;;;3.08;;
45344;SDS011;31078;48.304;11.896;2023-05-07T12:05:53;2.97;;;2.40;;
45344;SDS011;31078;48.304;11.896;2023-05-07T12:08:20;4.35;;;2.78;;
45344;SDS011;31078;48.304;11.896;2023-05-07T12:10:48;4.28;;;2.67;;
45344;SDS011;31078;48.304;11.896;2023-05-07T12:13:16;4.28;;;2.80;;
45344;SDS011;31078;48.304;11.896;2023-05-07T12:15:42;3.47;;;2.60;;
45344;SDS011;31078;48.304;11.896;2023-05-07T12:18:09;3.25;;;2.50;;
45344;SDS011;31078;48.304;11.896;2023-05-07T12:20:36;3.75;;;2.85;;
45344;SDS011;31078;48.304;11.896;2023-05-07T12:23:04;5.18;;;3.08;;
45344;SDS011;31078;48.304;11.896;2023-05-07T12:25:31;3.60;;;2.78;;
45344;SDS011;31078;48.304;11.896;2023-05-07T12:27:59;3.60;;;3.10;;
45344;SDS011;31078;48.304;11.896;2023-05-07T12:30:26;3.83;;;2.53;;
45344;SDS011;31078;48.304;11.896;2023-05-07T12:32:53;3.80;;;2.63;;
45344;SDS011;31078;48.304;11.896;2023-05-07T12:35:26;3.05;;;2.30;;
45344;SDS011;31078;48.304;11.896;2023-05-07T12:37:56;4.57;;;2.22;;
45344;SDS011;31078;48.304;11.896;2023-05-07T12:40:34;3.65;;;2.38;;
45344;SDS011;31078;48.304;11.896;2023-05-07T12:43:02;2.72;;;2.00;;
45344;SDS011;31078;48.304;11.896;2023-05-07T12:45:28;3.88;;;2.17;;
45344;SDS011;31078;48.304;11.896;2023-05-07T12:47:55;6.35;;;2.65;;
45344;SDS011;31078;48.304;11.896;2023-05-07T12:50:22;6.43;;;2.03;;
45344;SDS011;31078;48.304;11.896;2023-05-07T12:52:49;4.43;;;2.53;;
45344;SDS011;31078;48.304;11.896;2023-05-07T12:55:15;3.40;;;1.90;;
45344;SDS011;31078;48.304;11.896;2023-05-07T12:57:45;4.30;;;2.10;;
45344;SDS011;31078;48.304;11.896;2023-05-07T13:00:14;3.70;;;2.72;;
45344;SDS011;31078;48.304;11.896;2023-05-07T13:02:41;2.40;;;1.67;;
45344;SDS011;31078;48.304;11.896;2023-05-07T13:05:09;5.70;;;2.45;;
45344;SDS011;31078;48.304;11.896;2023-05-07T13:07:36;4.10;;;2.60;;
45344;SDS011;31078;48.304;11.896;2023-05-07T13:10:04;3.00;;;1.88;;
45344;SDS011;31078;48.304;11.896;2023-05-07T13:12:31;3.75;;;1.45;;
45344;SDS011;31078;48.304;11.896;2023-05-07T13:14:59;4.28;;;2.00;;
45344;SDS011;31078;48.304;11.896;2023-05-07T13:17:25;3.45;;;2.00;;
45344;SDS011;31078;48.304;11.896;2023-05-07T13:19:52;5.13;;;2.00;;
45344;SDS011;31078;48.304;11.896;2023-05-07T13:22:18;2.97;;;1.65;;
45344;SDS011;31078;48.304;11.896;2023-05-07T13:24:45;3.13;;;2.28;;
45344;SDS011;31078;48.304;11.896;2023-05-07T13:27:11;3.10;;;1.63;;
45344;SDS011;31078;48.304;11.896;2023-05-07T13:29:38;3.67;;;1.77;;
45344;SDS011;31078;48.304;11.896;2023-05-07T13:32:05;2.95;;;1.77;;
45344;SDS011;31078;48.304;11.896;2023-05-07T13:34:32;2.38;;;1.70;;
45344;SDS011;31078;48.304;11.896;2023-05-07T13:36:58;3.53;;;2.00;;
45344;SDS011;31078;48.304;11.896;2023-05-07T13:39:25;5.10;;;2.20;;
45344;SDS011;31078;48.304;11.896;2023-05-07T13:41:52;4.97;;;1.80;;
45344;SDS011;31078;48.304;11.896;2023-05-07T13:44:18;6.32;;;2.42;;
45344;SDS011;31078;48.304;11.896;2023-05-07T13:46:45;4.65;;;2.28;;
45344;SDS011;31078;48.304;11.896;2023-05-07T13:49:13;3.65;;;2.20;;
45344;SDS011;31078;48.304;11.896;2023-05-07T13:51:40;4.97;;;2.10;;
45344;SDS011;31078;48.304;11.896;2023-05-07T13:54:06;3.85;;;2.33;;
45344;SDS011;31078;48.304;11.896;2023-05-07T13:56:33;6.55;;;2.60;;
45344;SDS011;31078;48.304;11.896;2023-05-07T13:59:00;5.57;;;2.55;;
45344;SDS011;31078;48.304;11.896;2023-05-07T14:01:27;5.30;;;2.25;;
45344;SDS011;31078;48.304;11.896;2023-05-07T14:03:53;5.22;;;3.20;;
45344;SDS011;31078;48.304;11.896;2023-05-07T14:06:22;5.50;;;2.70;;
45344;SDS011;31078;48.304;11.896;2023-05-07T14:08:49;7.10;;;3.40;;
45344;SDS011;31078;48.304;11.896;2023-05-07T14:11:16;8.13;;;3.25;;
45344;SDS011;31078;48.304;11.896;2023-05-07T14:13:43;6.25;;;2.80;;
45344;SDS011;31078;48.304;11.896;2023-05-07T14:16:09;7.05;;;2.90;;
45344;SDS011;31078;48.304;11.896;2023-05-07T14:18:36;5.35;;;2.63;;
45344;SDS011;31078;48.304;11.896;2023-05-07T14:21:04;5.90;;;2.63;;
45344;SDS011;31078;48.304;11.896;2023-05-07T14:23:32;5.72;;;2.70;;
45344;SDS011;31078;48.304;11.896;2023-05-07T14:25:59;5.00;;;2.50;;
45344;SDS011;31078;48.304;11.896;2023-05-07T14:28:25;6.47;;;2.38;;
45344;SDS011;31078;48.304;11.896;2023-05-07T14:30:51;5.40;;;2.58;;
45344;SDS011;31078;48.304;11.896;2023-05-07T14:33:18;5.35;;;2.75;;
45344;SDS011;31078;48.304;11.896;2023-05-07T14:35:44;4.85;;;2.50;;
45344;SDS011;31078;48.304;11.896;2023-05-07T14:38:13;5.28;;;2.38;;
45344;SDS011;31078;48.304;11.896;2023-05-07T14:40:41;4.00;;;2.30;;
45344;SDS011;31078;48.304;11.896;2023-05-07T14:43:08;4.05;;;2.63;;
45344;SDS011;31078;48.304;11.896;2023-05-07T14:45:34;4.53;;;2.65;;
45344;SDS011;31078;48.304;11.896;2023-05-07T14:48:01;5.38;;;2.78;;